Time;durP1;ratioP1;P1;durP2;ratioP2;P2;SDS_P1;SDS_P2;PMS_P1;PMS_P2;Temp;Humidity;BMP_temperature;BMP_pressure;BME280_temperature;BME280_humidity;BME280_pressure;Samples;Min_cycle;Max_cycle;Signal;HPM_P1;HPM_P2
2023/07/03 00:03:52;;;;;;;19.83;14.13;;;;;;;30.58;85.56;97568.22;5059220;28;20167;-67
2023/07/03 00:06:23;;;;;;;22.13;15.15;;;;;;;30.61;85.57;97574.94;5038318;28;20044;-67
2023/07/03 00:08:53;;;;;;;20.70;14.27;;;;;;;30.59;86.00;97571.75;5054812;28;20052;-67
2023/07/03 00:11:22;;;;;;;19.83;13.82;;;;;;;30.56;85.73;97570.53;5032136;28;20056;-67
2023/07/03 00:13:51;;;;;;;18.58;13.57;;;;;;;30.59;86.31;97574.50;5020991;28;20048;-67
2023/07/03 00:16:21;;;;;;;23.75;15.30;;;;;;;30.63;85.88;97572.63;5060230;28;20082;-65
2023/07/03 00:18:50;;;;;;;18.02;15.10;;;;;;;30.65;85.87;97579.38;5043958;28;20080;-65
2023/07/03 00:21:19;;;;;;;21.33;15.10;;;;;;;30.66;85.44;97569.22;5058133;28;20059;-66
2023/07/03 00:23:49;;;;;;;21.98;14.90;;;;;;;30.67;85.20;97573.56;5030188;28;20094;-66
2023/07/03 00:26:19;;;;;;;20.35;15.52;;;;;;;30.69;85.46;97573.97;5054675;28;20083;-66
2023/07/03 00:28:48;;;;;;;18.10;14.88;;;;;;;30.71;84.76;97575.22;5047652;28;20102;-65
2023/07/03 00:31:17;;;;;;;24.13;16.60;;;;;;;30.72;85.13;97571.34;5044098;28;20049;-66
2023/07/03 00:33:47;;;;;;;21.92;14.65;;;;;;;30.74;85.19;97568.25;5008403;28;20166;-65
2023/07/03 00:36:17;;;;;;;22.15;15.82;;;;;;;30.80;84.26;97577.00;5024902;28;20131;-66
2023/07/03 00:38:47;;;;;;;21.08;15.07;;;;;;;30.86;83.75;97576.38;5028186;28;20041;-66
2023/07/03 00:41:17;;;;;;;21.30;15.05;;;;;;;30.87;83.00;97575.22;5043990;28;20063;-66
2023/07/03 00:43:47;;;;;;;20.20;14.65;;;;;;;30.89;82.85;97575.66;5045475;28;20484;-66
2023/07/03 00:46:17;;;;;;;20.92;14.88;;;;;;;30.96;82.33;97575.06;5030443;28;20439;-66
2023/07/03 00:48:48;;;;;;;22.33;15.25;;;;;;;31.01;82.69;97581.09;5031399;28;20049;-66
2023/07/03 00:51:18;;;;;;;18.50;13.98;;;;;;;31.02;82.56;97582.69;5031077;28;20147;-66
2023/07/03 00:53:48;;;;;;;23.52;14.73;;;;;;;31.05;82.00;97581.19;5025597;28;20053;-66
2023/07/03 00:56:17;;;;;;;25.33;14.00;;;;;;;31.08;82.30;97583.19;5009644;28;20156;-66
2023/07/03 00:58:47;;;;;;;27.70;15.00;;;;;;;31.10;81.48;97589.13;5033785;28;20595;-65
2023/07/03 01:01:34;;;;;;;19.48;14.05;;;;;;;31.12;81.78;97584.06;5012317;28;20126;-64
2023/07/03 01:04:11;;;;;;;23.77;15.30;;;;;;;31.16;81.29;97585.75;5046158;28;20041;-66
2023/07/03 01:06:50;;;;;;;22.23;14.48;;;;;;;31.18;81.04;97586.19;5020096;28;20045;-66
2023/07/03 01:09:23;;;;;;;18.48;13.70;;;;;;;31.18;79.89;97591.69;5011079;28;20045;-66
2023/07/03 01:11:56;;;;;;;23.10;13.75;;;;;;;31.24;80.14;97594.16;5046433;28;20036;-65
2023/07/03 01:14:29;;;;;;;19.13;13.52;;;;;;;31.26;80.02;97597.31;5042109;28;20057;-66
2023/07/03 01:17:01;;;;;;;24.05;14.85;;;;;;;31.27;78.10;97596.16;5026434;28;20045;-65
2023/07/03 01:19:33;;;;;;;21.90;15.35;;;;;;;31.31;77.72;97584.16;5030463;28;20040;-66
2023/07/03 01:22:14;;;;;;;24.38;15.32;;;;;;;31.38;78.10;97591.75;5044943;28;20922;-65
2023/07/03 01:24:50;;;;;;;23.08;16.33;;;;;;;31.38;77.84;97583.53;5049458;28;20114;-65
2023/07/03 01:27:32;;;;;;;22.63;15.77;;;;;;;31.44;77.66;97593.06;5049163;28;20674;-66
2023/07/03 01:30:04;;;;;;;23.27;15.20;;;;;;;31.47;78.37;97600.53;5041898;28;20127;-67
2023/07/03 01:32:36;;;;;;;25.40;15.95;;;;;;;31.48;78.54;97591.19;5034756;28;20049;-66
2023/07/03 01:35:11;;;;;;;;;;;;;;;31.52;78.80;97594.81;5068109;28;20807;-65
2023/07/03 01:37:43;;;;;;;;;;;;;;;31.58;78.51;97585.22;5070568;28;19959;-65
2023/07/03 01:40:15;;;;;;;19.35;14.15;;;;;;;31.64;79.23;97594.75;5050157;28;19957;-65
2023/07/03 01:42:47;;;;;;;22.48;14.68;;;;;;;31.72;79.12;97590.22;5050730;28;20049;-66
2023/07/03 01:45:16;;;;;;;19.48;15.05;;;;;;;31.84;78.90;97595.56;5049510;28;20049;-66
2023/07/03 01:47:46;;;;;;;23.15;15.40;;;;;;;31.93;79.07;97599.69;5050669;28;20074;-66
2023/07/03 01:50:20;;;;;;;25.38;15.55;;;;;;;32.13;77.71;97595.06;5067458;28;20308;-66
2023/07/03 01:53:00;;;;;;;23.83;15.70;;;;;;;32.26;76.39;97595.69;5047300;28;20494;-65
2023/07/03 01:55:41;;;;;;;24.75;15.32;;;;;;;32.50;76.83;97603.59;5046453;28;20137;-66
2023/07/03 01:58:20;;;;;;;23.33;16.30;;;;;;;32.51;75.77;97607.94;5047354;28;20056;-66
2023/07/03 02:00:54;;;;;;;18.02;14.70;;;;;;;32.88;75.17;97608.25;5066868;28;20141;-65
2023/07/03 02:03:59;;;;;;;18.95;14.32;;;;;;;33.18;75.10;97619.38;5047716;28;20436;-65
2023/07/03 02:06:43;;;;;;;26.95;16.73;;;;;;;33.15;72.82;97622.88;5038282;28;20045;-66
2023/07/03 02:09:13;;;;;;;23.35;15.25;;;;;;;33.41;71.82;97629.16;5049212;28;20147;-65
2023/07/03 02:11:48;;;;;;;20.15;14.65;;;;;;;33.63;71.20;97635.00;5049112;28;20131;-66
2023/07/03 02:14:18;;;;;;;23.05;15.13;;;;;;;33.98;69.39;97632.81;5048925;28;20124;-66
2023/07/03 02:16:48;;;;;;;20.92;14.88;;;;;;;33.97;68.23;97633.97;5066103;28;20048;-66
2023/07/03 02:19:18;;;;;;;21.40;15.90;;;;;;;34.04;69.85;97633.25;5042958;28;20041;-67
2023/07/03 02:21:48;;;;;;;25.35;15.38;;;;;;;34.21;69.81;97627.25;5014715;28;20044;-67
2023/07/03 02:24:17;;;;;;;27.38;16.05;;;;;;;34.13;69.44;97631.00;5039577;28;20404;-66
2023/07/03 02:26:47;;;;;;;25.65;15.27;;;;;;;34.21;68.29;97635.50;5045896;28;20062;-66
2023/07/03 02:29:34;;;;;;;21.63;13.88;;;;;;;34.45;69.49;97632.25;5063232;28;20113;-66
2023/07/03 02:32:12;;;;;;;20.10;13.98;;;;;;;34.35;67.08;97635.66;5031053;28;20501;-66
2023/07/03 02:34:41;;;;;;;21.00;13.50;;;;;;;34.77;65.83;97637.34;5067255;28;20098;-67
2023/07/03 02:37:13;;;;;;;19.98;13.40;;;;;;;34.88;67.17;97641.78;5031869;28;20140;-66
2023/07/03 02:39:43;;;;;;;28.95;14.63;;;;;;;35.04;66.06;97636.84;5045965;28;20081;-67
2023/07/03 02:42:12;;;;;;;20.23;13.57;;;;;;;35.33;65.68;97629.63;5047725;28;20052;-66
2023/07/03 02:44:42;;;;;;;23.80;13.27;;;;;;;35.69;62.67;97630.72;5033130;28;20060;-65
2023/07/03 02:47:11;;;;;;;24.30;13.35;;;;;;;35.75;63.48;97631.94;5045163;28;20072;-66
2023/07/03 02:49:42;;;;;;;25.73;13.23;;;;;;;35.76;62.60;97635.50;5042951;28;20412;-67
2023/07/03 02:52:13;;;;;;;16.55;9.43;;;;;;;35.77;60.19;97632.34;5046356;28;20079;-66
2023/07/03 02:54:44;;;;;;;18.38;8.02;;;;;;;35.93;61.23;97632.06;5057976;28;20119;-67
2023/07/03 02:57:14;;;;;;;14.23;7.30;;;;;;;36.16;58.14;97634.56;5031410;28;20064;-66
2023/07/03 02:59:44;;;;;;;15.95;7.18;;;;;;;36.34;60.04;97635.41;5022542;28;20051;-67
2023/07/03 03:02:14;;;;;;;16.05;7.32;;;;;;;36.35;57.63;97639.75;5039095;28;20044;-67
2023/07/03 03:04:47;;;;;;;13.40;7.60;;;;;;;36.32;57.09;97644.09;5055706;28;20072;-66
2023/07/03 03:07:16;;;;;;;11.35;7.20;;;;;;;36.65;57.38;97634.78;5054757;28;20052;-67
2023/07/03 03:09:45;;;;;;;12.77;7.18;;;;;;;36.61;60.03;97627.66;5021493;28;20135;-67
2023/07/03 03:12:16;;;;;;;21.23;7.32;;;;;;;36.59;59.90;97636.34;5053602;28;20127;-66
2023/07/03 03:14:46;;;;;;;13.13;6.88;;;;;;;36.68;55.39;97633.22;5046132;28;20076;-66
2023/07/03 03:17:15;;;;;;;16.67;6.85;;;;;;;36.57;56.17;97643.38;5058967;28;20055;-67
2023/07/03 03:19:45;;;;;;;16.50;6.90;;;;;;;36.50;55.58;97640.63;5059472;28;20048;-66
2023/07/03 03:22:14;;;;;;;13.95;6.40;;;;;;;36.56;57.82;97633.56;5058405;28;20119;-67
2023/07/03 03:24:44;;;;;;;14.43;5.97;;;;;;;36.75;55.61;97636.00;5040553;28;20040;-67
2023/07/03 03:27:13;;;;;;;14.82;6.20;;;;;;;36.68;56.09;97644.25;5060441;28;20072;-67
2023/07/03 03:29:47;;;;;;;15.10;6.30;;;;;;;36.59;56.43;97636.34;5042493;28;20048;-67
2023/07/03 03:32:17;;;;;;;14.10;6.68;;;;;;;36.44;54.47;97635.47;5049733;28;20155;-67
2023/07/03 03:34:46;;;;;;;14.52;5.97;;;;;;;36.57;56.30;97641.44;5041817;28;20064;-67
2023/07/03 03:37:17;;;;;;;10.93;6.15;;;;;;;36.57;52.79;97637.88;5057620;28;20074;-67
2023/07/03 03:39:47;;;;;;;12.48;6.57;;;;;;;36.43;55.44;97644.13;5059287;28;20056;-67
2023/07/03 03:42:18;;;;;;;17.38;6.32;;;;;;;36.21;54.54;97643.25;5048866;28;20044;-67
2023/07/03 03:44:49;;;;;;;15.60;6.47;;;;;;;36.40;56.97;97640.19;5058790;28;20060;-68
2023/07/03 03:47:20;;;;;;;14.02;7.15;;;;;;;36.42;54.52;97634.28;5041896;28;20452;-66
2023/07/03 03:49:50;;;;;;;13.43;6.00;;;;;;;36.90;54.31;97632.09;5055661;28;20045;-68
2023/07/03 03:52:20;;;;;;;12.98;6.18;;;;;;;37.07;54.25;97639.63;5040826;28;20044;-68
2023/07/03 03:54:50;;;;;;;12.77;7.03;;;;;;;37.16;56.59;97636.47;5089199;28;20060;-68
2023/07/03 03:57:19;;;;;;;15.75;6.63;;;;;;;37.48;55.50;97631.75;5036816;28;20047;-68
2023/07/03 03:59:48;;;;;;;13.75;6.32;;;;;;;37.69;55.36;97634.53;5058337;28;20476;-68
2023/07/03 04:02:18;;;;;;;12.73;6.55;;;;;;;37.50;54.49;97629.38;5054721;28;20048;-68
2023/07/03 04:04:48;;;;;;;15.82;6.20;;;;;;;37.18;53.12;97636.88;5059079;28;20044;-67
2023/07/03 04:07:17;;;;;;;16.98;7.15;;;;;;;37.72;52.11;97630.16;5072024;28;20048;-67
2023/07/03 04:09:46;;;;;;;15.25;5.53;;;;;;;37.47;51.47;97623.84;5038593;28;20163;-66
2023/07/03 04:12:17;;;;;;;14.85;6.10;;;;;;;37.40;50.57;97623.88;5076362;28;20702;-67
2023/07/03 04:14:47;;;;;;;11.15;6.05;;;;;;;37.61;52.40;97626.63;5058717;28;20070;-67
2023/07/03 04:17:17;;;;;;;13.20;6.03;;;;;;;37.51;53.32;97622.66;5071107;28;20082;-68
2023/07/03 04:19:46;;;;;;;14.30;6.57;;;;;;;37.83;53.45;97627.38;5074035;28;20056;-68
2023/07/03 04:22:16;;;;;;;14.05;5.78;;;;;;;37.64;50.77;97625.84;5054917;28;20048;-68
2023/07/03 04:24:45;;;;;;;15.43;5.63;;;;;;;37.80;52.33;97625.44;5037265;28;20045;-67
2023/07/03 04:27:17;;;;;;;13.70;6.25;;;;;;;37.80;51.16;97623.44;5031888;28;20051;-68
2023/07/03 04:29:49;;;;;;;14.98;5.78;;;;;;;37.52;52.56;97621.53;5022734;28;20054;-68
2023/07/03 04:32:19;;;;;;;14.35;6.00;;;;;;;37.76;51.71;97620.69;5029760;28;20767;-67
2023/07/03 04:34:50;;;;;;;14.32;5.50;;;;;;;37.91;49.63;97621.44;5022492;28;20048;-67
2023/07/03 04:37:19;;;;;;;15.27;6.25;;;;;;;37.53;49.32;97619.56;5025675;28;20049;-68
2023/07/03 04:39:49;;;;;;;9.75;4.85;;;;;;;37.74;47.77;97619.50;5039109;28;20505;-67
2023/07/03 04:42:19;;;;;;;17.23;5.38;;;;;;;38.03;49.17;97626.56;5036903;28;20131;-68
2023/07/03 04:44:49;;;;;;;15.65;5.45;;;;;;;38.38;52.69;97625.63;5024404;28;20080;-67
2023/07/03 04:47:19;;;;;;;14.10;5.20;;;;;;;38.34;52.66;97621.31;5039776;28;20152;-67
2023/07/03 04:49:48;;;;;;;14.25;4.88;;;;;;;38.34;50.57;97622.09;5028199;28;20516;-67
2023/07/03 04:52:19;;;;;;;16.17;6.13;;;;;;;38.45;49.34;97627.63;5045149;28;20128;-68
2023/07/03 04:54:50;;;;;;;15.43;4.82;;;;;;;38.31;49.88;97630.44;5044342;28;20338;-67
2023/07/03 04:57:19;;;;;;;12.43;5.22;;;;;;;38.49;47.86;97629.19;5044334;28;20055;-68
2023/07/03 04:59:49;;;;;;;14.88;5.45;;;;;;;38.35;48.36;97628.44;5044867;28;20049;-68
2023/07/03 05:02:20;;;;;;;11.80;5.25;;;;;;;38.39;49.33;97612.59;5048713;28;20114;-67
2023/07/03 05:04:52;;;;;;;11.60;5.15;;;;;;;38.14;47.95;97623.78;5044799;28;20059;-67
2023/07/03 05:07:23;;;;;;;14.95;5.88;;;;;;;37.80;49.09;97628.19;5030206;28;20051;-67
2023/07/03 05:09:53;;;;;;;23.63;6.18;;;;;;;38.00;54.28;97616.31;5045830;28;20084;-68
2023/07/03 05:12:23;;;;;;;14.57;6.05;;;;;;;37.80;50.89;97623.44;5029531;28;20094;-68
2023/07/03 05:14:54;;;;;;;15.32;5.75;;;;;;;37.96;51.29;97623.00;5028331;28;20045;-68
2023/07/03 05:17:25;;;;;;;13.45;6.13;;;;;;;37.80;51.27;97620.66;5029955;28;20080;-68
2023/07/03 05:19:55;;;;;;;13.02;6.03;;;;;;;38.08;50.84;97619.84;5029575;28;20044;-67
2023/07/03 05:22:25;;;;;;;19.15;7.03;;;;;;;37.82;48.95;97610.00;5026540;28;20048;-68
2023/07/03 05:24:55;;;;;;;10.57;6.05;;;;;;;38.12;49.07;97613.09;5036817;28;20098;-68
2023/07/03 05:27:24;;;;;;;13.82;6.78;;;;;;;38.31;49.30;97606.31;5030988;28;20107;-68
2023/07/03 05:29:54;;;;;;;14.68;7.00;;;;;;;38.69;48.78;97604.56;5061200;28;20091;-68
2023/07/03 05:32:23;;;;;;;20.33;6.15;;;;;;;38.38;48.90;97599.94;5045467;28;20098;-68
2023/07/03 05:34:53;;;;;;;18.40;7.00;;;;;;;38.41;51.19;97604.69;5056780;28;20067;-68
2023/07/03 05:37:23;;;;;;;21.02;6.65;;;;;;;38.39;53.45;97601.53;5047718;28;20151;-68
2023/07/03 05:39:53;;;;;;;14.70;6.32;;;;;;;38.16;48.80;97605.59;5039784;28;20045;-68
2023/07/03 05:42:23;;;;;;;14.00;6.35;;;;;;;38.18;48.40;97597.69;5056173;28;20179;-67
2023/07/03 05:44:53;;;;;;;16.83;6.10;;;;;;;38.14;48.79;97599.69;5067506;28;20041;-68
2023/07/03 05:47:22;;;;;;;12.48;6.60;;;;;;;38.00;48.67;97599.72;5049182;28;20844;-68
2023/07/03 05:49:53;;;;;;;16.92;6.72;;;;;;;38.34;48.79;97597.19;5049174;28;20055;-68
2023/07/03 05:52:22;;;;;;;13.45;6.40;;;;;;;38.32;50.15;97590.50;5044702;28;20189;-68
2023/07/03 05:54:52;;;;;;;17.35;7.32;;;;;;;38.21;51.45;97591.34;5040432;28;20049;-68
2023/07/03 05:57:22;;;;;;;19.75;8.25;;;;;;;38.14;51.33;97591.38;5032320;28;20152;-69
2023/07/03 05:59:54;;;;;;;16.30;7.35;;;;;;;38.50;52.33;97592.03;5019957;28;20048;-68
2023/07/03 06:02:23;;;;;;;16.40;7.97;;;;;;;38.82;53.21;97586.28;5049283;28;20044;-68
2023/07/03 06:04:55;;;;;;;19.55;8.15;;;;;;;38.90;57.73;97576.78;5062262;28;20052;-68
2023/07/03 06:07:25;;;;;;;20.45;8.02;;;;;;;38.51;48.86;97573.41;5035575;28;20059;-67
2023/07/03 06:09:57;;;;;;;14.70;6.70;;;;;;;38.25;52.70;97577.47;5062774;28;20059;-68
2023/07/03 06:12:29;;;;;;;14.35;8.13;;;;;;;38.01;52.83;97573.66;5061404;28;20052;-68
2023/07/03 06:15:00;;;;;;;22.52;8.00;;;;;;;38.42;52.20;97581.34;5040994;28;20212;-68
2023/07/03 06:17:31;;;;;;;16.75;7.55;;;;;;;38.30;49.44;97570.75;5036814;28;20040;-70
2023/07/03 06:20:01;;;;;;;18.45;7.90;;;;;;;38.17;49.58;97565.66;5046922;28;20192;-70
2023/07/03 06:22:30;;;;;;;15.80;6.72;;;;;;;38.44;52.16;97567.94;5059653;28;20075;-70
2023/07/03 06:25:00;;;;;;;16.30;8.30;;;;;;;37.99;49.98;97564.16;5065169;28;20049;-69
2023/07/03 06:27:29;;;;;;;15.55;7.65;;;;;;;38.20;50.56;97561.31;5046675;28;20064;-69
2023/07/03 06:29:58;;;;;;;14.65;8.00;;;;;;;37.88;51.27;97563.41;5031739;28;20537;-68
2023/07/03 06:32:29;;;;;;;16.48;7.47;;;;;;;37.72;51.60;97556.31;5066585;28;20048;-68
2023/07/03 06:34:59;;;;;;;16.08;7.97;;;;;;;37.50;52.28;97557.53;5067651;28;20052;-68
2023/07/03 06:37:35;;;;;;;19.98;8.60;;;;;;;37.44;53.92;97552.81;5045524;28;20053;-69
2023/07/03 06:40:10;;;;;;;19.10;8.88;;;;;;;37.47;55.95;97546.50;5065989;28;21659;-69
2023/07/03 06:42:40;;;;;;;18.80;9.65;;;;;;;37.06;54.02;97544.16;5049081;28;20084;-69
2023/07/03 06:45:16;;;;;;;15.52;8.82;;;;;;;37.09;57.17;97543.34;5059032;28;20048;-68
2023/07/03 06:47:46;;;;;;;17.83;11.10;;;;;;;36.94;57.86;97541.78;5063009;28;20426;-68
2023/07/03 06:50:15;;;;;;;20.83;9.90;;;;;;;36.60;55.57;97544.13;5059851;28;20045;-69
2023/07/03 06:52:47;;;;;;;16.95;8.98;;;;;;;36.75;57.22;97544.91;5045639;28;20071;-69
2023/07/03 06:55:19;;;;;;;19.23;8.60;;;;;;;36.82;54.80;97533.88;5060104;28;20052;-67
2023/07/03 06:57:49;;;;;;;18.67;9.10;;;;;;;36.65;55.49;97529.13;5047285;28;20060;-68
2023/07/03 07:00:20;;;;;;;14.93;8.27;;;;;;;36.72;58.13;97534.66;5056901;28;20134;-66
2023/07/03 07:02:50;;;;;;;17.35;9.10;;;;;;;36.48;61.27;97534.19;5064173;28;20044;-68
2023/07/03 07:05:21;;;;;;;14.43;8.93;;;;;;;36.21;57.89;97529.38;5061330;28;20044;-65
2023/07/03 07:07:51;;;;;;;18.83;9.27;;;;;;;36.21;58.91;97527.44;5062493;28;20074;-65
2023/07/03 07:10:21;;;;;;;18.23;9.23;;;;;;;36.16;60.24;97527.03;5058772;28;20412;-65
2023/07/03 07:12:50;;;;;;;20.65;9.18;;;;;;;36.12;60.07;97521.50;5062818;28;20514;-66
2023/07/03 07:15:19;;;;;;;19.05;8.98;;;;;;;36.01;59.40;97513.16;5046515;28;20048;-67
2023/07/03 07:17:49;;;;;;;19.00;9.93;;;;;;;36.18;61.31;97524.66;5064087;28;20083;-65
2023/07/03 07:20:20;;;;;;;18.88;9.65;;;;;;;36.40;58.32;97510.53;5064226;28;20098;-66
2023/07/03 07:22:49;;;;;;;17.50;8.15;;;;;;;36.78;58.76;97513.78;5027936;28;20127;-68
2023/07/03 07:25:19;;;;;;;19.98;9.80;;;;;;;36.92;55.57;97511.00;5044773;28;20869;-66
2023/07/03 07:27:50;;;;;;;21.30;9.80;;;;;;;37.03;55.78;97509.03;5045429;28;20171;-67
2023/07/03 07:30:19;;;;;;;21.00;10.35;;;;;;;37.10;56.80;97514.56;5046369;28;20037;-69
2023/07/03 07:32:49;;;;;;;24.77;10.45;;;;;;;37.32;54.41;97513.34;5061609;28;20044;-69
2023/07/03 07:35:19;;;;;;;22.20;10.07;;;;;;;37.25;53.41;97507.06;5062883;28;20125;-67
2023/07/03 07:37:49;;;;;;;17.25;10.38;;;;;;;37.31;54.13;97500.72;5049765;28;20052;-70
2023/07/03 07:43:30;;;;;;;15.82;8.95;;;;;;;37.66;59.43;97491.59;5309147;23;20066;-67
2023/07/03 07:46:25;;;;;;;19.23;9.00;;;;;;;37.65;53.87;97487.25;4970627;28;20047;-67
2023/07/03 07:49:15;;;;;;;14.13;8.32;;;;;;;37.71;57.24;97490.38;4960590;28;20050;-67
2023/07/03 07:52:06;;;;;;;28.52;9.30;;;;;;;37.67;54.89;97487.63;4962078;28;20053;-66
2023/07/03 07:54:57;;;;;;;17.52;8.93;;;;;;;37.75;55.72;97486.41;4970802;28;20057;-67
2023/07/03 07:57:48;;;;;;;21.90;9.15;;;;;;;37.87;56.08;97481.63;4964231;28;20042;-67
2023/07/03 08:00:40;;;;;;;16.35;8.50;;;;;;;37.72;57.84;97489.19;4962281;28;20038;-67
2023/07/03 08:03:31;;;;;;;14.45;8.60;;;;;;;37.31;55.93;97481.38;4968307;28;20112;-67
2023/07/03 08:06:20;;;;;;;15.27;7.65;;;;;;;37.13;55.03;97474.34;4966273;28;20050;-67
2023/07/03 08:09:11;;;;;;;12.88;8.70;;;;;;;37.36;59.26;97477.44;4966573;28;20043;-68
2023/07/03 08:12:05;;;;;;;14.50;7.43;;;;;;;37.13;54.11;97477.91;4966383;28;20050;-68
2023/07/03 08:14:56;;;;;;;23.83;8.27;;;;;;;36.79;56.01;97468.41;4964093;28;20074;-67
2023/07/03 08:17:46;;;;;;;16.77;8.20;;;;;;;36.44;57.56;97463.66;4967777;28;20042;-66
2023/07/03 08:20:36;;;;;;;16.00;9.13;;;;;;;36.35;58.95;97466.78;4968137;28;20043;-68
2023/07/03 08:23:26;;;;;;;16.00;8.13;;;;;;;36.30;57.18;97463.63;4948540;28;20090;-69
2023/07/03 08:26:21;;;;;;;14.85;8.10;;;;;;;36.24;57.59;97468.75;4959927;28;20069;-68
2023/07/03 08:29:12;;;;;;;19.05;8.77;;;;;;;36.36;58.04;97462.84;4970911;28;20042;-68
2023/07/03 08:32:03;;;;;;;14.88;8.60;;;;;;;36.63;57.85;97454.22;4960871;28;20051;-67
2023/07/03 08:34:53;;;;;;;19.02;8.18;;;;;;;36.80;55.62;97454.22;4971211;28;20756;-67
2023/07/03 08:37:46;;;;;;;19.92;10.25;;;;;;;36.86;55.47;97451.88;4977835;28;20164;-67
2023/07/03 08:40:36;;;;;;;20.83;8.50;;;;;;;36.90;55.12;97453.44;4974523;28;20314;-66
2023/07/03 08:43:36;;;;;;;19.10;7.88;;;;;;;37.07;55.08;97446.34;4961296;28;20039;-67
2023/07/03 08:46:31;;;;;;;15.57;8.52;;;;;;;36.94;54.03;97436.88;4964850;28;20046;-66
2023/07/03 08:49:24;;;;;;;15.10;8.65;;;;;;;36.88;54.16;97438.44;4971024;28;20786;-67
2023/07/03 08:52:40;;;;;;;13.93;8.02;;;;;;;37.03;54.98;97437.25;4977254;28;20417;-67
2023/07/03 08:55:56;;;;;;;13.13;8.20;;;;;;;37.16;54.46;97435.66;4968828;28;20046;-66
2023/07/03 08:58:51;;;;;;;18.17;8.18;;;;;;;37.01;53.44;97425.78;4975848;28;20049;-67
2023/07/03 09:01:55;;;;;;;18.92;8.70;;;;;;;37.15;54.66;97425.00;4974381;28;20047;-66
2023/07/03 09:05:15;;;;;;;14.20;8.77;;;;;;;37.11;53.96;97418.72;4978744;28;20053;-68
2023/07/03 09:08:08;;;;;;;21.13;8.25;;;;;;;37.05;54.56;97412.78;4962588;28;20141;-66
2023/07/03 09:10:59;;;;;;;17.30;8.18;;;;;;;36.90;53.90;97408.47;4964347;28;20347;-68
2023/07/03 09:13:54;;;;;;;16.60;7.80;;;;;;;36.95;53.68;97407.28;4965506;28;20505;-68
2023/07/03 09:16:46;;;;;;;17.58;9.02;;;;;;;37.09;54.67;97407.28;4974304;28;20046;-67
2023/07/03 09:19:41;;;;;;;15.13;8.15;;;;;;;36.95;53.41;97399.78;4965617;28;20124;-67
2023/07/03 09:23:09;;;;;;;13.05;8.25;;;;;;;36.82;54.77;97393.13;4963061;28;20304;-67
2023/07/03 09:26:06;;;;;;;24.63;9.35;;;;;;;36.75;55.57;97393.91;4977847;28;20060;-67
2023/07/03 09:28:58;;;;;;;16.85;8.38;;;;;;;36.68;56.54;97387.63;4973985;28;20043;-67
2023/07/03 09:31:48;;;;;;;19.92;8.77;;;;;;;36.69;57.54;97381.69;4964488;28;20057;-67
2023/07/03 09:35:11;;;;;;;20.58;7.93;;;;;;;36.59;56.41;97371.47;4969223;28;20059;-68
2023/07/03 09:38:04;;;;;;;12.32;9.07;;;;;;;36.44;56.93;97378.91;4970688;28;20053;-68
2023/07/03 09:40:55;;;;;;;13.43;8.13;;;;;;;36.35;58.89;97373.00;4969161;28;20043;-66
2023/07/03 09:43:47;;;;;;;11.77;7.78;;;;;;;36.19;57.55;97374.59;4964924;28;20351;-67
2023/07/03 09:46:38;;;;;;;10.63;7.57;;;;;;;36.14;58.63;97361.19;4971159;28;20047;-66
2023/07/03 09:49:29;;;;;;;11.57;7.68;;;;;;;36.04;55.91;97357.22;4971982;28;20070;-67
2023/07/03 09:52:23;;;;;;;17.13;8.40;;;;;;;35.99;57.61;97355.63;4964407;28;20489;-67
2023/07/03 09:55:16;;;;;;;;;;;;;;;36.07;57.80;97356.41;4962890;28;20130;-67
2023/07/03 09:58:15;;;;;;;13.23;7.65;;;;;;;36.23;58.39;97345.03;4969972;28;19936;-67
2023/07/03 10:01:06;;;;;;;13.38;8.60;;;;;;;36.32;58.26;97335.19;4961437;28;20125;-67
2023/07/03 10:04:09;;;;;;;14.93;7.90;;;;;;;36.42;58.99;97331.66;4960181;28;20050;-67
2023/07/03 10:07:07;;;;;;;16.10;7.57;;;;;;;36.48;58.74;97321.78;4966600;28;20077;-67
2023/07/03 10:09:58;;;;;;;14.60;7.38;;;;;;;36.48;55.99;97315.47;4970305;28;20061;-68
2023/07/03 10:13:14;;;;;;;16.75;7.20;;;;;;;36.62;59.08;97312.72;4964381;28;20051;-67
2023/07/03 10:16:05;;;;;;;15.95;7.65;;;;;;;36.64;56.63;97304.06;4959035;28;20062;-68
2023/07/03 10:18:59;;;;;;;18.50;7.38;;;;;;;36.47;57.61;97303.63;4967003;28;20136;-68
2023/07/03 10:21:50;;;;;;;19.20;8.25;;;;;;;36.40;59.65;97289.88;4964331;28;20167;-68
2023/07/03 10:24:43;;;;;;;12.68;7.13;;;;;;;36.29;57.97;97285.56;4971715;28;20128;-69
2023/07/03 10:27:36;;;;;;;14.35;7.55;;;;;;;36.14;58.57;97284.78;4969611;28;20050;-67
2023/07/03 10:30:28;;;;;;;;;;;;;;;36.04;59.98;97280.03;4969013;28;20235;-67
2023/07/03 10:33:25;;;;;;;13.32;7.35;;;;;;;36.06;58.25;97280.44;4967464;28;19937;-68
2023/07/03 10:36:26;;;;;;;12.35;7.28;;;;;;;36.24;56.98;97278.47;4965125;28;20162;-69
2023/07/03 10:39:27;;;;;;;14.27;8.90;;;;;;;36.41;58.87;97269.38;4964973;28;20051;-67
2023/07/03 10:42:42;;;;;;;13.50;7.78;;;;;;;36.43;57.15;97267.00;4964963;28;20071;-65
2023/07/03 10:45:36;;;;;;;18.77;7.50;;;;;;;36.51;56.38;97255.97;4969526;28;20846;-66
2023/07/03 10:48:33;;;;;;;15.23;7.60;;;;;;;36.41;56.60;97244.56;4972149;28;20054;-66
2023/07/03 10:51:50;;;;;;;10.82;6.60;;;;;;;36.45;57.69;97245.34;4972929;28;20051;-65
2023/07/03 10:55:01;;;;;;;17.17;7.25;;;;;;;36.50;55.84;97246.91;4971388;28;20046;-65
2023/07/03 10:58:15;;;;;;;15.57;6.97;;;;;;;36.45;56.86;97236.28;4971293;28;20050;-67
2023/07/03 11:01:41;;;;;;;12.60;6.88;;;;;;;36.49;56.27;97228.78;4966149;28;20046;-68
2023/07/03 11:04:43;;;;;;;14.55;6.93;;;;;;;36.48;55.65;97221.66;4962005;28;20054;-66
2023/07/03 11:07:48;;;;;;;12.25;6.88;;;;;;;36.54;56.13;97222.06;4974498;28;20556;-67
2023/07/03 11:11:06;;;;;;;15.30;6.90;;;;;;;36.55;55.33;97207.09;4962191;28;20043;-67
2023/07/03 11:14:10;;;;;;;9.68;6.47;;;;;;;36.57;55.69;97202.72;4967506;28;20074;-66
2023/07/03 11:17:04;;;;;;;;;;;;;;;36.53;55.73;97201.94;4960387;28;20050;-66
2023/07/03 11:20:12;;;;;;;14.00;6.82;;;;;;;36.52;55.78;97194.06;4970752;28;19926;-66
2023/07/03 11:23:27;;;;;;;12.57;6.30;;;;;;;36.50;56.24;97196.44;4971632;28;20047;-67
2023/07/03 11:26:34;;;;;;;15.68;6.50;;;;;;;36.46;56.21;97190.97;4971216;28;20050;-65
2023/07/03 11:29:29;;;;;;;15.90;7.90;;;;;;;36.44;57.51;97199.63;4973413;28;20642;-68
2023/07/03 11:32:19;;;;;;;11.52;6.38;;;;;;;36.34;56.55;97183.88;4967586;28;20078;-67
2023/07/03 11:35:13;;;;;;;14.35;6.80;;;;;;;36.28;56.61;97184.69;4966414;28;20042;-67
2023/07/03 11:38:09;;;;;;;13.30;6.85;;;;;;;36.20;57.74;97194.97;4967279;28;20065;-68
2023/07/03 11:41:08;;;;;;;12.80;6.25;;;;;;;36.10;57.63;97186.69;4967307;28;20043;-71
2023/07/03 11:44:19;;;;;;;16.73;7.00;;;;;;;35.94;56.15;97195.34;4969813;28;20058;-69
2023/07/03 11:47:28;;;;;;;16.67;7.18;;;;;;;35.90;57.23;97189.06;4967578;28;20069;-66
2023/07/03 11:50:30;;;;;;;17.77;7.35;;;;;;;36.04;56.72;97194.56;4967479;28;20065;-66
2023/07/03 11:53:32;;;;;;;11.27;6.10;;;;;;;36.02;56.29;97192.22;4970101;28;20098;-67
2023/07/03 11:56:31;;;;;;;11.93;6.57;;;;;;;36.01;56.94;97187.09;4970307;28;20046;-67
2023/07/03 11:59:25;;;;;;;12.68;6.60;;;;;;;35.99;57.20;97187.47;4970368;28;20193;-66
2023/07/03 12:02:15;;;;;;;;;;;;;;;35.92;57.67;97183.97;4968813;28;20507;-67
2023/07/03 12:05:09;;;;;;;18.02;7.13;;;;;;;35.80;57.89;97176.09;4971568;28;19925;-68
2023/07/03 12:08:00;;;;;;;11.02;7.10;;;;;;;35.77;56.68;97171.34;4974661;28;20105;-67
2023/07/03 12:10:52;;;;;;;15.98;7.55;;;;;;;35.75;57.36;97170.97;4972886;28;20042;-67
2023/07/03 12:13:46;;;;;;;14.40;7.15;;;;;;;35.69;57.83;97170.59;4974044;28;20065;-67
2023/07/03 12:16:45;;;;;;;13.10;6.72;;;;;;;35.62;58.46;97167.81;4969272;28;20038;-67
2023/07/03 12:19:35;;;;;;;20.92;7.55;;;;;;;35.58;59.28;97161.53;4971912;28;20038;-68
2023/07/03 12:22:28;;;;;;;15.90;7.20;;;;;;;35.57;58.74;97157.97;4974799;28;20042;-68
2023/07/03 12:25:22;;;;;;;18.38;7.05;;;;;;;35.59;58.47;97155.59;4978195;28;20110;-70
2023/07/03 12:28:17;;;;;;;18.05;7.25;;;;;;;35.62;58.09;97143.03;4973698;28;20195;-67
2023/07/03 12:31:14;;;;;;;12.02;6.75;;;;;;;35.63;58.50;97154.84;4969487;28;20049;-68